sensor_id;sensor_type;location;lat;lon;timestamp;temperature;humidity
34989;DHT22;21192;40.182;44.516;2023-01-24T00:01:18;4.10;58.10
34989;DHT22;21192;40.182;44.516;2023-01-24T00:03:44;4.10;58.20
34989;DHT22;21192;40.182;44.516;2023-01-24T00:06:10;4.00;58.20
34989;DHT22;21192;40.182;44.516;2023-01-24T00:08:36;4.00;58.20
34989;DHT22;21192;40.182;44.516;2023-01-24T00:11:05;3.90;58.20
34989;DHT22;21192;40.182;44.516;2023-01-24T00:13:31;3.90;58.30
34989;DHT22;21192;40.182;44.516;2023-01-24T00:16:11;3.90;58.40
34989;DHT22;21192;40.182;44.516;2023-01-24T00:18:37;3.90;58.50
34989;DHT22;21192;40.182;44.516;2023-01-24T00:21:09;3.90;58.50
34989;DHT22;21192;40.182;44.516;2023-01-24T00:23:42;3.90;58.50
34989;DHT22;21192;40.182;44.516;2023-01-24T00:26:09;3.80;58.50
34989;DHT22;21192;40.182;44.516;2023-01-24T00:28:35;3.80;58.60
34989;DHT22;21192;40.182;44.516;2023-01-24T00:31:02;3.80;58.70
34989;DHT22;21192;40.182;44.516;2023-01-24T00:33:28;3.80;58.70
34989;DHT22;21192;40.182;44.516;2023-01-24T00:35:54;3.90;58.60
34989;DHT22;21192;40.182;44.516;2023-01-24T00:38:21;3.80;58.50
34989;DHT22;21192;40.182;44.516;2023-01-24T00:40:47;3.80;58.60
34989;DHT22;21192;40.182;44.516;2023-01-24T00:43:12;3.70;58.70
34989;DHT22;21192;40.182;44.516;2023-01-24T00:45:39;3.70;58.80
34989;DHT22;21192;40.182;44.516;2023-01-24T00:48:06;3.70;58.80
34989;DHT22;21192;40.182;44.516;2023-01-24T00:50:33;3.60;58.80
34989;DHT22;21192;40.182;44.516;2023-01-24T00:53:00;3.70;59.00
34989;DHT22;21192;40.182;44.516;2023-01-24T00:55:27;3.60;59.00
34989;DHT22;21192;40.182;44.516;2023-01-24T00:57:53;3.60;59.10
34989;DHT22;21192;40.182;44.516;2023-01-24T01:00:19;3.60;59.10
34989;DHT22;21192;40.182;44.516;2023-01-24T01:02:46;3.50;59.20
34989;DHT22;21192;40.182;44.516;2023-01-24T01:05:12;3.50;59.40
34989;DHT22;21192;40.182;44.516;2023-01-24T01:07:37;3.50;59.40
34989;DHT22;21192;40.182;44.516;2023-01-24T01:10:04;3.60;59.40
34989;DHT22;21192;40.182;44.516;2023-01-24T01:12:29;3.70;59.40
34989;DHT22;21192;40.182;44.516;2023-01-24T01:14:55;3.70;59.30
34989;DHT22;21192;40.182;44.516;2023-01-24T01:17:21;3.70;59.90
34989;DHT22;21192;40.182;44.516;2023-01-24T01:19:51;3.70;59.30
34989;DHT22;21192;40.182;44.516;2023-01-24T01:22:17;3.60;59.40
34989;DHT22;21192;40.182;44.516;2023-01-24T01:24:43;3.60;59.60
34989;DHT22;21192;40.182;44.516;2023-01-24T01:27:09;3.50;59.80
34989;DHT22;21192;40.182;44.516;2023-01-24T01:29:35;3.40;59.90
34989;DHT22;21192;40.182;44.516;2023-01-24T01:32:01;3.40;60.00
34989;DHT22;21192;40.182;44.516;2023-01-24T01:34:27;3.40;59.80
34989;DHT22;21192;40.182;44.516;2023-01-24T01:36:52;3.40;59.80
34989;DHT22;21192;40.182;44.516;2023-01-24T01:39:18;3.30;59.70
34989;DHT22;21192;40.182;44.516;2023-01-24T01:41:44;3.30;59.90
34989;DHT22;21192;40.182;44.516;2023-01-24T01:44:18;3.20;59.80
34989;DHT22;21192;40.182;44.516;2023-01-24T01:47:49;3.30;59.90
34989;DHT22;21192;40.182;44.516;2023-01-24T01:49:54;3.20;59.80
34989;DHT22;21192;40.182;44.516;2023-01-24T01:52:23;3.30;59.90
34989;DHT22;21192;40.182;44.516;2023-01-24T01:54:51;3.30;59.70
34989;DHT22;21192;40.182;44.516;2023-01-24T01:57:25;3.30;59.60
34989;DHT22;21192;40.182;44.516;2023-01-24T02:00:14;3.30;59.60
34989;DHT22;21192;40.182;44.516;2023-01-24T02:02:44;3.30;59.50
34989;DHT22;21192;40.182;44.516;2023-01-24T02:05:15;3.40;59.30
34989;DHT22;21192;40.182;44.516;2023-01-24T02:08:03;3.30;59.90
34989;DHT22;21192;40.182;44.516;2023-01-24T02:10:30;3.30;59.30
34989;DHT22;21192;40.182;44.516;2023-01-24T02:13:15;3.40;59.20
34989;DHT22;21192;40.182;44.516;2023-01-24T02:15:42;3.40;59.10
34989;DHT22;21192;40.182;44.516;2023-01-24T02:18:27;3.30;59.20
34989;DHT22;21192;40.182;44.516;2023-01-24T02:20:54;3.30;59.40
34989;DHT22;21192;40.182;44.516;2023-01-24T02:23:30;3.30;59.40
34989;DHT22;21192;40.182;44.516;2023-01-24T02:26:13;3.30;59.40
34989;DHT22;21192;40.182;44.516;2023-01-24T02:28:44;3.20;59.50
34989;DHT22;21192;40.182;44.516;2023-01-24T02:31:11;3.30;59.60
34989;DHT22;21192;40.182;44.516;2023-01-24T02:33:37;3.20;59.60
34989;DHT22;21192;40.182;44.516;2023-01-24T02:36:17;3.20;59.70
34989;DHT22;21192;40.182;44.516;2023-01-24T02:38:48;3.20;60.40
34989;DHT22;21192;40.182;44.516;2023-01-24T02:41:17;3.30;59.80
34989;DHT22;21192;40.182;44.516;2023-01-24T02:43:47;3.20;59.80
34989;DHT22;21192;40.182;44.516;2023-01-24T02:46:15;3.10;59.80
34989;DHT22;21192;40.182;44.516;2023-01-24T02:48:41;3.20;59.90
34989;DHT22;21192;40.182;44.516;2023-01-24T02:51:07;3.20;59.80
34989;DHT22;21192;40.182;44.516;2023-01-24T02:53:50;3.20;59.90
34989;DHT22;21192;40.182;44.516;2023-01-24T02:56:16;3.30;59.90
34989;DHT22;21192;40.182;44.516;2023-01-24T02:59:01;3.30;59.70
34989;DHT22;21192;40.182;44.516;2023-01-24T03:01:26;3.30;59.70
34989;DHT22;21192;40.182;44.516;2023-01-24T03:03:53;3.20;59.70
34989;DHT22;21192;40.182;44.516;2023-01-24T03:06:20;3.30;59.80
34989;DHT22;21192;40.182;44.516;2023-01-24T03:08:46;3.30;59.80
34989;DHT22;21192;40.182;44.516;2023-01-24T03:11:12;3.30;59.90
34989;DHT22;21192;40.182;44.516;2023-01-24T03:13:38;3.20;60.00
34989;DHT22;21192;40.182;44.516;2023-01-24T03:16:22;3.20;60.10
34989;DHT22;21192;40.182;44.516;2023-01-24T03:19:07;3.20;60.20
34989;DHT22;21192;40.182;44.516;2023-01-24T03:21:51;3.10;60.20
34989;DHT22;21192;40.182;44.516;2023-01-24T03:24:35;3.10;60.30
34989;DHT22;21192;40.182;44.516;2023-01-24T03:27:21;3.20;60.30
34989;DHT22;21192;40.182;44.516;2023-01-24T03:30:06;3.20;60.10
34989;DHT22;21192;40.182;44.516;2023-01-24T03:32:51;3.20;60.00
34989;DHT22;21192;40.182;44.516;2023-01-24T03:35:36;3.20;59.80
34989;DHT22;21192;40.182;44.516;2023-01-24T03:38:02;3.10;59.90
34989;DHT22;21192;40.182;44.516;2023-01-24T03:40:50;3.00;60.00
34989;DHT22;21192;40.182;44.516;2023-01-24T03:43:16;3.10;60.00
34989;DHT22;21192;40.182;44.516;2023-01-24T03:45:42;3.00;59.90
34989;DHT22;21192;40.182;44.516;2023-01-24T03:48:09;3.00;59.90
34989;DHT22;21192;40.182;44.516;2023-01-24T03:50:42;3.00;59.80
34989;DHT22;21192;40.182;44.516;2023-01-24T03:53:28;2.90;59.90
34989;DHT22;21192;40.182;44.516;2023-01-24T03:55:59;2.90;59.80
34989;DHT22;21192;40.182;44.516;2023-01-24T03:58:26;2.90;59.70
34989;DHT22;21192;40.182;44.516;2023-01-24T04:00:52;3.00;59.60
34989;DHT22;21192;40.182;44.516;2023-01-24T04:03:19;3.00;59.50
34989;DHT22;21192;40.182;44.516;2023-01-24T04:05:48;3.00;59.40
34989;DHT22;21192;40.182;44.516;2023-01-24T04:08:15;3.00;59.30
34989;DHT22;21192;40.182;44.516;2023-01-24T04:10:41;3.00;59.30
34989;DHT22;21192;40.182;44.516;2023-01-24T04:13:08;2.90;59.40
34989;DHT22;21192;40.182;44.516;2023-01-24T04:15:34;2.80;59.60
34989;DHT22;21192;40.182;44.516;2023-01-24T04:18:01;2.70;59.80
34989;DHT22;21192;40.182;44.516;2023-01-24T04:20:30;2.60;59.90
34989;DHT22;21192;40.182;44.516;2023-01-24T04:22:56;2.60;60.20
34989;DHT22;21192;40.182;44.516;2023-01-24T04:25:25;2.70;60.20
34989;DHT22;21192;40.182;44.516;2023-01-24T04:27:51;2.80;60.80
34989;DHT22;21192;40.182;44.516;2023-01-24T04:30:16;2.90;60.40
34989;DHT22;21192;40.182;44.516;2023-01-24T04:32:43;2.90;59.60
34989;DHT22;21192;40.182;44.516;2023-01-24T04:35:14;3.10;59.50
34989;DHT22;21192;40.182;44.516;2023-01-24T04:37:40;3.20;59.30
34989;DHT22;21192;40.182;44.516;2023-01-24T04:40:07;3.20;59.20
34989;DHT22;21192;40.182;44.516;2023-01-24T04:42:33;3.20;59.30
34989;DHT22;21192;40.182;44.516;2023-01-24T04:44:59;3.20;59.30
34989;DHT22;21192;40.182;44.516;2023-01-24T04:47:24;3.30;59.40
34989;DHT22;21192;40.182;44.516;2023-01-24T04:49:50;3.50;59.40
34989;DHT22;21192;40.182;44.516;2023-01-24T04:52:16;3.90;59.30
34989;DHT22;21192;40.182;44.516;2023-01-24T04:54:42;4.50;59.10
34989;DHT22;21192;40.182;44.516;2023-01-24T04:57:11;5.00;58.70
34989;DHT22;21192;40.182;44.516;2023-01-24T04:59:37;5.70;57.80
34989;DHT22;21192;40.182;44.516;2023-01-24T05:02:03;6.30;56.80
34989;DHT22;21192;40.182;44.516;2023-01-24T05:04:29;6.90;55.80
34989;DHT22;21192;40.182;44.516;2023-01-24T05:06:55;7.40;54.60
34989;DHT22;21192;40.182;44.516;2023-01-24T05:09:22;7.60;53.40
34989;DHT22;21192;40.182;44.516;2023-01-24T05:11:47;7.80;52.70
34989;DHT22;21192;40.182;44.516;2023-01-24T05:14:13;8.10;52.20
34989;DHT22;21192;40.182;44.516;2023-01-24T05:16:39;8.60;51.90
34989;DHT22;21192;40.182;44.516;2023-01-24T05:19:05;9.20;51.10
34989;DHT22;21192;40.182;44.516;2023-01-24T05:21:31;9.80;50.10
34989;DHT22;21192;40.182;44.516;2023-01-24T05:23:57;10.40;49.10
34989;DHT22;21192;40.182;44.516;2023-01-24T05:26:24;10.80;48.20
34989;DHT22;21192;40.182;44.516;2023-01-24T05:28:51;11.30;47.40
34989;DHT22;21192;40.182;44.516;2023-01-24T05:31:18;11.80;46.40
34989;DHT22;21192;40.182;44.516;2023-01-24T05:33:44;12.30;45.50
34989;DHT22;21192;40.182;44.516;2023-01-24T05:36:21;12.70;44.60
34989;DHT22;21192;40.182;44.516;2023-01-24T05:38:47;13.20;43.80
34989;DHT22;21192;40.182;44.516;2023-01-24T05:41:15;13.60;42.90
34989;DHT22;21192;40.182;44.516;2023-01-24T05:43:42;13.80;42.20
34989;DHT22;21192;40.182;44.516;2023-01-24T05:46:14;14.20;41.60
34989;DHT22;21192;40.182;44.516;2023-01-24T05:48:42;14.80;41.00
34989;DHT22;21192;40.182;44.516;2023-01-24T05:51:09;15.20;40.10
34989;DHT22;21192;40.182;44.516;2023-01-24T05:53:37;15.60;39.60
34989;DHT22;21192;40.182;44.516;2023-01-24T05:56:12;16.40;38.90
34989;DHT22;21192;40.182;44.516;2023-01-24T05:58:39;17.10;37.90
34989;DHT22;21192;40.182;44.516;2023-01-24T06:01:10;17.80;37.10
34989;DHT22;21192;40.182;44.516;2023-01-24T06:03:37;18.50;36.10
34989;DHT22;21192;40.182;44.516;2023-01-24T06:06:03;19.00;35.30
34989;DHT22;21192;40.182;44.516;2023-01-24T06:08:30;19.60;34.70
34989;DHT22;21192;40.182;44.516;2023-01-24T06:11:01;20.00;34.00
34989;DHT22;21192;40.182;44.516;2023-01-24T06:13:27;20.10;33.70
34989;DHT22;21192;40.182;44.516;2023-01-24T06:16:01;20.40;33.60
34989;DHT22;21192;40.182;44.516;2023-01-24T06:18:27;20.50;33.40
34989;DHT22;21192;40.182;44.516;2023-01-24T06:20:52;20.70;33.10
34989;DHT22;21192;40.182;44.516;2023-01-24T06:23:25;21.00;32.80
34989;DHT22;21192;40.182;44.516;2023-01-24T06:25:52;21.20;32.50
34989;DHT22;21192;40.182;44.516;2023-01-24T06:28:18;21.20;32.30
34989;DHT22;21192;40.182;44.516;2023-01-24T06:39:14;20.70;32.30
34989;DHT22;21192;40.182;44.516;2023-01-24T06:41:41;20.50;32.20
34989;DHT22;21192;40.182;44.516;2023-01-24T06:44:10;20.40;32.50
34989;DHT22;21192;40.182;44.516;2023-01-24T06:46:37;20.60;32.40
34989;DHT22;21192;40.182;44.516;2023-01-24T06:49:02;20.50;32.30
34989;DHT22;21192;40.182;44.516;2023-01-24T06:51:28;20.60;32.40
34989;DHT22;21192;40.182;44.516;2023-01-24T06:53:54;21.00;32.00
34989;DHT22;21192;40.182;44.516;2023-01-24T06:56:20;21.20;31.90
34989;DHT22;21192;40.182;44.516;2023-01-24T06:58:46;20.50;31.90
34989;DHT22;21192;40.182;44.516;2023-01-24T07:01:13;20.30;32.60
34989;DHT22;21192;40.182;44.516;2023-01-24T07:03:38;19.50;33.60
34989;DHT22;21192;40.182;44.516;2023-01-24T07:06:04;18.60;33.60
34989;DHT22;21192;40.182;44.516;2023-01-24T07:08:30;17.70;34.20
34989;DHT22;21192;40.182;44.516;2023-01-24T07:10:59;16.60;35.20
34989;DHT22;21192;40.182;44.516;2023-01-24T07:13:25;15.80;36.20
34989;DHT22;21192;40.182;44.516;2023-01-24T07:15:51;15.50;36.90
34989;DHT22;21192;40.182;44.516;2023-01-24T07:18:18;15.30;37.40
34989;DHT22;21192;40.182;44.516;2023-01-24T07:20:45;14.80;37.90
34989;DHT22;21192;40.182;44.516;2023-01-24T07:23:23;14.40;38.70
34989;DHT22;21192;40.182;44.516;2023-01-24T07:25:50;14.10;39.30
34989;DHT22;21192;40.182;44.516;2023-01-24T07:28:16;13.60;39.80
34989;DHT22;21192;40.182;44.516;2023-01-24T07:30:42;13.30;40.50
34989;DHT22;21192;40.182;44.516;2023-01-24T07:33:12;13.00;41.10
34989;DHT22;21192;40.182;44.516;2023-01-24T07:35:38;12.70;41.60
34989;DHT22;21192;40.182;44.516;2023-01-24T07:38:05;12.40;42.20
34989;DHT22;21192;40.182;44.516;2023-01-24T07:40:31;12.20;42.70
34989;DHT22;21192;40.182;44.516;2023-01-24T07:42:59;12.00;43.10
34989;DHT22;21192;40.182;44.516;2023-01-24T07:45:26;11.50;43.70
34989;DHT22;21192;40.182;44.516;2023-01-24T07:47:56;11.00;44.50
34989;DHT22;21192;40.182;44.516;2023-01-24T07:50:26;10.90;45.00
34989;DHT22;21192;40.182;44.516;2023-01-24T07:52:53;10.60;45.50
34989;DHT22;21192;40.182;44.516;2023-01-24T07:55:20;10.40;46.10
34989;DHT22;21192;40.182;44.516;2023-01-24T07:57:46;10.30;46.40
34989;DHT22;21192;40.182;44.516;2023-01-24T08:00:13;10.20;46.60
34989;DHT22;21192;40.182;44.516;2023-01-24T08:02:43;10.10;46.80
34989;DHT22;21192;40.182;44.516;2023-01-24T08:05:09;10.10;46.90
34989;DHT22;21192;40.182;44.516;2023-01-24T08:07:35;10.20;47.10
34989;DHT22;21192;40.182;44.516;2023-01-24T08:10:01;10.20;47.00
34989;DHT22;21192;40.182;44.516;2023-01-24T08:12:27;10.40;47.00
34989;DHT22;21192;40.182;44.516;2023-01-24T08:14:53;10.50;46.70
34989;DHT22;21192;40.182;44.516;2023-01-24T08:17:18;10.40;46.70
34989;DHT22;21192;40.182;44.516;2023-01-24T08:19:44;10.10;47.00
34989;DHT22;21192;40.182;44.516;2023-01-24T08:22:10;10.00;47.50
34989;DHT22;21192;40.182;44.516;2023-01-24T08:24:36;10.10;47.60
34989;DHT22;21192;40.182;44.516;2023-01-24T08:27:03;10.00;47.60
34989;DHT22;21192;40.182;44.516;2023-01-24T08:29:29;9.70;47.90
34989;DHT22;21192;40.182;44.516;2023-01-24T08:31:55;9.60;48.30
34989;DHT22;21192;40.182;44.516;2023-01-24T08:34:22;9.60;48.40
34989;DHT22;21192;40.182;44.516;2023-01-24T08:36:48;9.60;48.50
34989;DHT22;21192;40.182;44.516;2023-01-24T08:39:14;9.50;48.60
34989;DHT22;21192;40.182;44.516;2023-01-24T08:41:41;9.40;48.80
34989;DHT22;21192;40.182;44.516;2023-01-24T08:44:08;9.50;48.80
34989;DHT22;21192;40.182;44.516;2023-01-24T08:46:34;9.60;48.70
34989;DHT22;21192;40.182;44.516;2023-01-24T08:49:02;9.50;48.80
34989;DHT22;21192;40.182;44.516;2023-01-24T08:51:28;9.50;48.90
34989;DHT22;21192;40.182;44.516;2023-01-24T08:53:54;9.30;49.10
34989;DHT22;21192;40.182;44.516;2023-01-24T08:56:20;9.30;49.30
34989;DHT22;21192;40.182;44.516;2023-01-24T08:58:46;9.60;49.20
34989;DHT22;21192;40.182;44.516;2023-01-24T09:01:12;9.70;49.00
34989;DHT22;21192;40.182;44.516;2023-01-24T09:03:38;9.60;49.00
34989;DHT22;21192;40.182;44.516;2023-01-24T09:06:04;9.40;50.20
34989;DHT22;21192;40.182;44.516;2023-01-24T09:08:31;9.20;49.90
34989;DHT22;21192;40.182;44.516;2023-01-24T09:10:58;8.90;49.90
34989;DHT22;21192;40.182;44.516;2023-01-24T09:13:25;9.10;50.20
34989;DHT22;21192;40.182;44.516;2023-01-24T09:15:51;9.10;50.00
34989;DHT22;21192;40.182;44.516;2023-01-24T09:18:16;8.60;50.20
34989;DHT22;21192;40.182;44.516;2023-01-24T09:20:43;8.60;50.80
34989;DHT22;21192;40.182;44.516;2023-01-24T09:23:10;8.50;51.00
34989;DHT22;21192;40.182;44.516;2023-01-24T09:25:37;8.40;50.90
34989;DHT22;21192;40.182;44.516;2023-01-24T09:28:03;8.30;51.00
34989;DHT22;21192;40.182;44.516;2023-01-24T09:30:29;8.40;51.10
34989;DHT22;21192;40.182;44.516;2023-01-24T09:32:55;8.40;51.30
34989;DHT22;21192;40.182;44.516;2023-01-24T09:35:21;8.60;51.30
34989;DHT22;21192;40.182;44.516;2023-01-24T09:37:47;8.70;51.00
34989;DHT22;21192;40.182;44.516;2023-01-24T09:40:26;8.80;50.70
34989;DHT22;21192;40.182;44.516;2023-01-24T09:43:01;8.70;50.60
34989;DHT22;21192;40.182;44.516;2023-01-24T09:45:35;8.50;51.40
34989;DHT22;21192;40.182;44.516;2023-01-24T09:48:05;8.40;51.50
34989;DHT22;21192;40.182;44.516;2023-01-24T09:50:46;8.20;51.50
34989;DHT22;21192;40.182;44.516;2023-01-24T09:53:25;8.20;51.60
34989;DHT22;21192;40.182;44.516;2023-01-24T09:55:53;8.20;51.50
34989;DHT22;21192;40.182;44.516;2023-01-24T09:58:39;8.20;51.70
34989;DHT22;21192;40.182;44.516;2023-01-24T10:01:14;8.30;51.80
34989;DHT22;21192;40.182;44.516;2023-01-24T10:03:40;8.10;51.80
34989;DHT22;21192;40.182;44.516;2023-01-24T10:06:24;8.00;52.00
34989;DHT22;21192;40.182;44.516;2023-01-24T10:25:14;8.30;51.90
34989;DHT22;21192;40.182;44.516;2023-01-24T10:27:46;8.40;51.70
34989;DHT22;21192;40.182;44.516;2023-01-24T10:30:16;8.30;51.70
34989;DHT22;21192;40.182;44.516;2023-01-24T10:32:45;8.20;51.90
34989;DHT22;21192;40.182;44.516;2023-01-24T10:35:15;8.20;52.10
34989;DHT22;21192;40.182;44.516;2023-01-24T10:37:45;8.30;51.90
34989;DHT22;21192;40.182;44.516;2023-01-24T10:40:16;8.40;51.80
34989;DHT22;21192;40.182;44.516;2023-01-24T10:42:43;8.50;51.50
34989;DHT22;21192;40.182;44.516;2023-01-24T10:50:45;8.40;51.40
34989;DHT22;21192;40.182;44.516;2023-01-24T10:53:25;8.50;51.50
34989;DHT22;21192;40.182;44.516;2023-01-24T10:56:03;8.50;51.30
34989;DHT22;21192;40.182;44.516;2023-01-24T10:58:39;8.60;51.30
34989;DHT22;21192;40.182;44.516;2023-01-24T11:01:19;8.60;51.30
34989;DHT22;21192;40.182;44.516;2023-01-24T11:03:48;8.50;51.20
34989;DHT22;21192;40.182;44.516;2023-01-24T11:06:48;8.50;51.30
34989;DHT22;21192;40.182;44.516;2023-01-24T11:09:16;8.60;51.20
34989;DHT22;21192;40.182;44.516;2023-01-24T11:11:50;8.70;51.10
34989;DHT22;21192;40.182;44.516;2023-01-24T11:14:20;8.80;50.90
34989;DHT22;21192;40.182;44.516;2023-01-24T11:16:52;8.60;51.00
34989;DHT22;21192;40.182;44.516;2023-01-24T11:19:29;8.50;51.30
34989;DHT22;21192;40.182;44.516;2023-01-24T11:22:01;8.50;51.50
34989;DHT22;21192;40.182;44.516;2023-01-24T11:24:28;8.50;51.60
34989;DHT22;21192;40.182;44.516;2023-01-24T11:29:39;8.50;51.30
34989;DHT22;21192;40.182;44.516;2023-01-24T11:35:11;8.50;51.50
34989;DHT22;21192;40.182;44.516;2023-01-24T11:43:35;8.40;51.60
34989;DHT22;21192;40.182;44.516;2023-01-24T11:46:20;8.50;51.40
34989;DHT22;21192;40.182;44.516;2023-01-24T11:57:47;8.40;51.50
34989;DHT22;21192;40.182;44.516;2023-01-24T12:00:24;8.40;51.50
34989;DHT22;21192;40.182;44.516;2023-01-24T12:03:28;8.40;51.50
34989;DHT22;21192;40.182;44.516;2023-01-24T12:08:33;8.40;51.50
34989;DHT22;21192;40.182;44.516;2023-01-24T12:11:20;8.40;51.50
34989;DHT22;21192;40.182;44.516;2023-01-24T12:13:52;8.40;51.60
34989;DHT22;21192;40.182;44.516;2023-01-24T12:22:14;8.70;51.30
34989;DHT22;21192;40.182;44.516;2023-01-24T12:24:45;8.50;51.40
34989;DHT22;21192;40.182;44.516;2023-01-24T12:27:17;8.60;51.40
34989;DHT22;21192;40.182;44.516;2023-01-24T12:32:54;8.30;51.40
34989;DHT22;21192;40.182;44.516;2023-01-24T12:35:32;8.30;51.90
34989;DHT22;21192;40.182;44.516;2023-01-24T12:38:02;8.30;51.80
34989;DHT22;21192;40.182;44.516;2023-01-24T12:46:21;8.50;51.40
34989;DHT22;21192;40.182;44.516;2023-01-24T12:49:15;8.40;51.40
34989;DHT22;21192;40.182;44.516;2023-01-24T12:54:44;8.70;51.30
34989;DHT22;21192;40.182;44.516;2023-01-24T12:57:27;8.60;51.00
34989;DHT22;21192;40.182;44.516;2023-01-24T12:59:55;8.50;51.20
34989;DHT22;21192;40.182;44.516;2023-01-24T13:10:55;8.40;51.40
34989;DHT22;21192;40.182;44.516;2023-01-24T13:13:27;8.30;51.70
34989;DHT22;21192;40.182;44.516;2023-01-24T13:16:24;8.30;51.80
34989;DHT22;21192;40.182;44.516;2023-01-24T13:18:55;8.20;51.70
34989;DHT22;21192;40.182;44.516;2023-01-24T13:27:11;7.90;52.20
34989;DHT22;21192;40.182;44.516;2023-01-24T13:32:13;7.90;52.40
34989;DHT22;21192;40.182;44.516;2023-01-24T13:35:00;7.90;52.40
34989;DHT22;21192;40.182;44.516;2023-01-24T13:37:27;7.90;52.30
34989;DHT22;21192;40.182;44.516;2023-01-24T13:42:38;7.70;52.40
34989;DHT22;21192;40.182;44.516;2023-01-24T13:54:15;7.30;53.50
34989;DHT22;21192;40.182;44.516;2023-01-24T13:59:41;7.40;53.30
34989;DHT22;21192;40.182;44.516;2023-01-24T14:04:51;7.70;52.90
34989;DHT22;21192;40.182;44.516;2023-01-24T14:07:49;7.80;52.80
34989;DHT22;21192;40.182;44.516;2023-01-24T14:10:15;7.80;52.70
34989;DHT22;21192;40.182;44.516;2023-01-24T14:12:52;7.80;52.60
34989;DHT22;21192;40.182;44.516;2023-01-24T14:17:48;7.70;52.80
34989;DHT22;21192;40.182;44.516;2023-01-24T14:20:30;7.60;52.90
34989;DHT22;21192;40.182;44.516;2023-01-24T14:23:01;7.50;53.10
34989;DHT22;21192;40.182;44.516;2023-01-24T14:31:14;7.20;53.90
34989;DHT22;21192;40.182;44.516;2023-01-24T14:33:49;7.00;54.10
34989;DHT22;21192;40.182;44.516;2023-01-24T14:36:23;6.90;54.40
34989;DHT22;21192;40.182;44.516;2023-01-24T14:39:11;6.90;54.60
34989;DHT22;21192;40.182;44.516;2023-01-24T14:41:37;6.90;54.70
34989;DHT22;21192;40.182;44.516;2023-01-24T14:44:24;6.90;54.60
34989;DHT22;21192;40.182;44.516;2023-01-24T14:46:59;6.90;54.50
34989;DHT22;21192;40.182;44.516;2023-01-24T14:49:34;6.90;54.60
34989;DHT22;21192;40.182;44.516;2023-01-24T14:52:02;6.80;54.70
34989;DHT22;21192;40.182;44.516;2023-01-24T14:54:28;6.70;54.80
34989;DHT22;21192;40.182;44.516;2023-01-24T14:56:54;6.60;55.00
34989;DHT22;21192;40.182;44.516;2023-01-24T14:59:21;6.70;55.10
34989;DHT22;21192;40.182;44.516;2023-01-24T15:01:51;6.70;55.00
34989;DHT22;21192;40.182;44.516;2023-01-24T15:04:26;6.70;55.00
34989;DHT22;21192;40.182;44.516;2023-01-24T15:07:13;6.70;55.00
34989;DHT22;21192;40.182;44.516;2023-01-24T15:09:40;6.80;54.90
34989;DHT22;21192;40.182;44.516;2023-01-24T15:12:29;6.80;54.80
34989;DHT22;21192;40.182;44.516;2023-01-24T15:14:57;6.80;54.80
34989;DHT22;21192;40.182;44.516;2023-01-24T15:17:27;6.90;54.80
34989;DHT22;21192;40.182;44.516;2023-01-24T15:19:59;6.90;54.80
34989;DHT22;21192;40.182;44.516;2023-01-24T15:22:27;6.80;54.70
34989;DHT22;21192;40.182;44.516;2023-01-24T15:24:58;6.90;54.80
34989;DHT22;21192;40.182;44.516;2023-01-24T15:30:11;6.90;54.80
34989;DHT22;21192;40.182;44.516;2023-01-24T15:37:43;6.90;54.80
34989;DHT22;21192;40.182;44.516;2023-01-24T15:40:18;6.90;54.70
34989;DHT22;21192;40.182;44.516;2023-01-24T15:42:47;7.00;54.80
34989;DHT22;21192;40.182;44.516;2023-01-24T15:45:35;7.10;54.60
34989;DHT22;21192;40.182;44.516;2023-01-24T15:48:22;7.10;54.60
34989;DHT22;21192;40.182;44.516;2023-01-24T15:50:55;7.10;54.70
34989;DHT22;21192;40.182;44.516;2023-01-24T15:53:38;7.00;54.60
34989;DHT22;21192;40.182;44.516;2023-01-24T15:56:16;6.90;54.70
34989;DHT22;21192;40.182;44.516;2023-01-24T15:58:46;6.90;54.90
34989;DHT22;21192;40.182;44.516;2023-01-24T16:01:13;6.80;55.10
34989;DHT22;21192;40.182;44.516;2023-01-24T16:03:38;6.80;55.30
34989;DHT22;21192;40.182;44.516;2023-01-24T16:06:04;6.80;55.30
34989;DHT22;21192;40.182;44.516;2023-01-24T16:08:30;6.80;55.40
34989;DHT22;21192;40.182;44.516;2023-01-24T16:10:56;6.80;55.50
34989;DHT22;21192;40.182;44.516;2023-01-24T16:13:28;6.70;55.60
34989;DHT22;21192;40.182;44.516;2023-01-24T16:15:59;6.70;55.70
34989;DHT22;21192;40.182;44.516;2023-01-24T16:18:26;6.70;55.80
34989;DHT22;21192;40.182;44.516;2023-01-24T16:20:52;6.60;56.00
34989;DHT22;21192;40.182;44.516;2023-01-24T16:23:18;6.60;56.20
34989;DHT22;21192;40.182;44.516;2023-01-24T16:25:46;6.60;56.50
34989;DHT22;21192;40.182;44.516;2023-01-24T16:28:26;6.50;56.70
34989;DHT22;21192;40.182;44.516;2023-01-24T16:30:54;6.40;57.10
34989;DHT22;21192;40.182;44.516;2023-01-24T16:33:24;6.20;57.30
34989;DHT22;21192;40.182;44.516;2023-01-24T16:35:50;6.20;57.30
34989;DHT22;21192;40.182;44.516;2023-01-24T16:38:16;6.30;57.10
34989;DHT22;21192;40.182;44.516;2023-01-24T16:40:42;6.30;56.90
34989;DHT22;21192;40.182;44.516;2023-01-24T16:43:20;6.40;56.70
34989;DHT22;21192;40.182;44.516;2023-01-24T16:45:48;6.40;56.50
34989;DHT22;21192;40.182;44.516;2023-01-24T16:48:14;6.40;56.40
34989;DHT22;21192;40.182;44.516;2023-01-24T16:50:41;6.30;56.50
34989;DHT22;21192;40.182;44.516;2023-01-24T16:53:07;6.30;56.50
34989;DHT22;21192;40.182;44.516;2023-01-24T16:55:34;6.30;56.60
34989;DHT22;21192;40.182;44.516;2023-01-24T16:58:03;6.20;56.60
34989;DHT22;21192;40.182;44.516;2023-01-24T17:00:29;6.20;56.80
34989;DHT22;21192;40.182;44.516;2023-01-24T17:02:57;6.00;56.90
34989;DHT22;21192;40.182;44.516;2023-01-24T17:05:26;5.80;57.20
34989;DHT22;21192;40.182;44.516;2023-01-24T17:07:54;5.70;57.60
34989;DHT22;21192;40.182;44.516;2023-01-24T17:10:20;5.50;57.90
34989;DHT22;21192;40.182;44.516;2023-01-24T17:12:46;5.50;58.00
34989;DHT22;21192;40.182;44.516;2023-01-24T17:15:12;5.50;58.00
34989;DHT22;21192;40.182;44.516;2023-01-24T17:17:38;5.50;58.10
34989;DHT22;21192;40.182;44.516;2023-01-24T17:20:05;5.40;58.20
34989;DHT22;21192;40.182;44.516;2023-01-24T17:22:32;5.50;58.20
34989;DHT22;21192;40.182;44.516;2023-01-24T17:24:58;5.40;58.10
34989;DHT22;21192;40.182;44.516;2023-01-24T17:27:23;5.40;58.30
34989;DHT22;21192;40.182;44.516;2023-01-24T17:29:49;5.30;58.30
34989;DHT22;21192;40.182;44.516;2023-01-24T17:32:15;5.30;58.50
34989;DHT22;21192;40.182;44.516;2023-01-24T17:34:41;5.10;58.70
34989;DHT22;21192;40.182;44.516;2023-01-24T17:37:07;5.00;59.00
34989;DHT22;21192;40.182;44.516;2023-01-24T17:39:32;5.00;59.20
34989;DHT22;21192;40.182;44.516;2023-01-24T17:41:58;5.00;59.10
34989;DHT22;21192;40.182;44.516;2023-01-24T17:44:24;5.00;59.10
34989;DHT22;21192;40.182;44.516;2023-01-24T17:46:50;5.00;59.10